Time;durP1;ratioP1;P1;durP2;ratioP2;P2;SDS_P1;SDS_P2;PMS_P1;PMS_P2;Temp;Humidity;BMP_temperature;BMP_pressure;BME280_temperature;BME280_humidity;BME280_pressure;Samples;Min_cycle;Max_cycle;Signal;HPM_P1;HPM_P2
2021/05/09 00:01:12;;;;;;;4.90;3.73;;;;;;;;;;5097145;28;20431;-65
2021/05/09 00:03:39;;;;;;;3.30;3.10;;;;;;;;;;5096695;28;20452;-65
2021/05/09 00:06:06;;;;;;;5.30;3.73;;;;;;;;;;5096975;28;20431;-65
2021/05/09 00:08:33;;;;;;;4.07;3.67;;;;;;;;;;5096497;28;20570;-66
2021/05/09 00:11:00;;;;;;;4.40;3.20;;;;;;;;;;5096496;28;21001;-65
2021/05/09 00:13:27;;;;;;;4.07;3.40;;;;;;;;;;5097492;28;20443;-65
2021/05/09 00:15:54;;;;;;;4.00;3.57;;;;;;;;;;5096507;28;20931;-66
2021/05/09 00:18:21;;;;;;;5.23;3.33;;;;;;;;;;5096452;28;20500;-66
2021/05/09 00:20:47;;;;;;;3.47;3.17;;;;;;;;;;5096416;28;20441;-65
2021/05/09 00:23:14;;;;;;;3.83;3.63;;;;;;;;;;5096733;28;20446;-66
2021/05/09 00:25:42;;;;;;;4.70;3.88;;;;;;;;;;5096588;28;20527;-65
2021/05/09 00:28:08;;;;;;;4.43;3.97;;;;;;;;;;5096262;28;20631;-65
2021/05/09 00:30:35;;;;;;;3.73;3.40;;;;;;;;;;5096524;28;20442;-65
2021/05/09 00:33:02;;;;;;;4.20;3.80;;;;;;;;;;5096145;28;20465;-65
2021/05/09 00:35:28;;;;;;;3.30;3.10;;;;;;;;;;5096124;28;21016;-65
2021/05/09 00:37:55;;;;;;;4.20;3.70;;;;;;;;;;5096498;28;20446;-66
2021/05/09 00:40:22;;;;;;;4.27;3.73;;;;;;;;;;5095210;28;20474;-65
2021/05/09 00:42:49;;;;;;;3.53;3.20;;;;;;;;;;5096715;28;20435;-65
2021/05/09 00:45:16;;;;;;;5.30;2.85;;;;;;;;;;5096300;28;20456;-65
2021/05/09 00:47:43;;;;;;;6.65;3.42;;;;;;;;;;5096128;28;20201;-65
2021/05/09 00:50:10;;;;;;;3.67;3.35;;;;;;;;;;5096212;28;20197;-65
2021/05/09 00:52:39;;;;;;;3.92;3.60;;;;;;;;;;5096161;28;20577;-65
2021/05/09 00:55:08;;;;;;;4.67;3.77;;;;;;;;;;5096146;28;20197;-65
2021/05/09 00:57:36;;;;;;;4.20;3.73;;;;;;;;;;5095973;28;20442;-65
2021/05/09 01:00:05;;;;;;;4.90;3.70;;;;;;;;;;5095639;28;20996;-65
2021/05/09 01:02:32;;;;;;;4.63;4.33;;;;;;;;;;5095542;28;20948;-65
2021/05/09 01:04:59;;;;;;;4.60;4.10;;;;;;;;;;5095457;28;20495;-65
2021/05/09 01:07:27;;;;;;;5.63;4.30;;;;;;;;;;5095740;28;20445;-65
2021/05/09 01:09:54;;;;;;;4.17;3.77;;;;;;;;;;5095616;28;20486;-66
2021/05/09 01:12:20;;;;;;;4.57;4.15;;;;;;;;;;5095696;28;20453;-65
2021/05/09 01:14:47;;;;;;;5.70;4.63;;;;;;;;;;5095691;28;20288;-65
2021/05/09 01:17:15;;;;;;;4.50;4.20;;;;;;;;;;5095689;28;20658;-65
2021/05/09 01:19:42;;;;;;;4.43;4.13;;;;;;;;;;5095470;28;20446;-65
2021/05/09 01:22:10;;;;;;;4.95;4.05;;;;;;;;;;5095716;28;20795;-65
2021/05/09 01:24:37;;;;;;;7.85;3.97;;;;;;;;;;5095097;28;20228;-65
2021/05/09 01:27:04;;;;;;;5.70;4.20;;;;;;;;;;5095063;28;20200;-65
2021/05/09 01:29:31;;;;;;;4.70;4.18;;;;;;;;;;5095276;28;20483;-65
2021/05/09 01:31:58;;;;;;;5.38;4.13;;;;;;;;;;5095372;28;20232;-65
2021/05/09 01:34:31;;;;;;;4.60;4.20;;;;;;;;;;5095259;28;20196;-65
2021/05/09 01:36:58;;;;;;;4.93;4.30;;;;;;;;;;5095727;28;20184;-65
2021/05/09 01:39:26;;;;;;;4.45;4.05;;;;;;;;;;5095628;28;20200;-65
2021/05/09 01:41:52;;;;;;;4.60;4.20;;;;;;;;;;5094841;28;20594;-65
2021/05/09 01:44:19;;;;;;;4.67;3.57;;;;;;;;;;5095107;28;20447;-66
2021/05/09 01:46:46;;;;;;;4.40;4.00;;;;;;;;;;5095074;28;20777;-65
2021/05/09 01:49:12;;;;;;;4.63;3.95;;;;;;;;;;5094941;28;20217;-65
2021/05/09 01:51:39;;;;;;;4.82;3.92;;;;;;;;;;5094679;28;20327;-65
2021/05/09 01:54:06;;;;;;;4.20;3.60;;;;;;;;;;5094876;28;20288;-65
2021/05/09 01:56:33;;;;;;;4.83;4.23;;;;;;;;;;5094827;28;20445;-65
2021/05/09 01:59:00;;;;;;;4.70;4.23;;;;;;;;;;5094486;28;20955;-65
2021/05/09 02:01:27;;;;;;;5.03;4.53;;;;;;;;;;5094766;28;20530;-66
2021/05/09 02:03:53;;;;;;;4.78;4.25;;;;;;;;;;5095402;28;20529;-65
2021/05/09 02:06:20;;;;;;;5.93;4.32;;;;;;;;;;5094345;28;20223;-65
2021/05/09 02:08:47;;;;;;;4.28;3.97;;;;;;;;;;5094730;28;20217;-65
2021/05/09 02:11:14;;;;;;;4.37;4.00;;;;;;;;;;5094163;28;20200;-65
2021/05/09 02:13:41;;;;;;;4.70;4.28;;;;;;;;;;5094525;28;20454;-65
2021/05/09 02:16:08;;;;;;;5.85;5.25;;;;;;;;;;5094600;28;20197;-65
2021/05/09 02:18:35;;;;;;;6.22;4.75;;;;;;;;;;5094186;28;20208;-65
2021/05/09 02:21:01;;;;;;;6.37;4.60;;;;;;;;;;5094436;28;20193;-65
2021/05/09 02:23:28;;;;;;;6.28;5.00;;;;;;;;;;5094380;28;20469;-66
2021/05/09 02:25:55;;;;;;;5.93;5.33;;;;;;;;;;5094025;28;20200;-65
2021/05/09 02:28:22;;;;;;;9.80;6.30;;;;;;;;;;5094617;28;20481;-65
2021/05/09 02:30:49;;;;;;;5.20;4.70;;;;;;;;;;5093958;28;20452;-64
2021/05/09 02:33:16;;;;;;;7.27;5.30;;;;;;;;;;5094584;28;20272;-65
2021/05/09 02:35:43;;;;;;;5.47;4.97;;;;;;;;;;5093959;28;20446;-65
2021/05/09 02:38:10;;;;;;;5.22;4.82;;;;;;;;;;5093814;28;20207;-66
2021/05/09 02:40:36;;;;;;;5.50;5.00;;;;;;;;;;5093633;28;20273;-66
2021/05/09 02:43:03;;;;;;;5.55;4.80;;;;;;;;;;5094057;28;20290;-66
2021/05/09 02:45:30;;;;;;;5.23;4.73;;;;;;;;;;5094334;28;20241;-66
2021/05/09 02:47:57;;;;;;;5.43;5.00;;;;;;;;;;5093843;28;20453;-66
2021/05/09 02:50:24;;;;;;;6.38;5.55;;;;;;;;;;5093623;28;20446;-66
2021/05/09 02:52:51;;;;;;;7.33;6.50;;;;;;;;;;5094435;28;20286;-66
2021/05/09 02:55:17;;;;;;;7.15;6.15;;;;;;;;;;5093887;28;20529;-65
2021/05/09 02:57:44;;;;;;;5.93;5.43;;;;;;;;;;5094033;28;20206;-66
2021/05/09 03:00:11;;;;;;;5.65;5.00;;;;;;;;;;5093527;28;20239;-66
2021/05/09 03:02:38;;;;;;;6.30;4.70;;;;;;;;;;5093133;28;20602;-65
2021/05/09 03:05:06;;;;;;;5.47;4.55;;;;;;;;;;5093564;28;20191;-66
2021/05/09 03:07:32;;;;;;;4.45;4.15;;;;;;;;;;5093541;28;20194;-66
2021/05/09 03:09:59;;;;;;;5.43;4.93;;;;;;;;;;5093422;28;20227;-65
2021/05/09 03:12:26;;;;;;;8.13;4.72;;;;;;;;;;5094001;28;20288;-65
2021/05/09 03:14:53;;;;;;;5.88;4.55;;;;;;;;;;5093488;28;20290;-65
2021/05/09 03:17:19;;;;;;;5.47;4.88;;;;;;;;;;5093117;28;20662;-66
2021/05/09 03:19:46;;;;;;;7.40;4.93;;;;;;;;;;5093420;28;20284;-65
2021/05/09 03:22:13;;;;;;;5.15;4.70;;;;;;;;;;5093367;28;20544;-65
2021/05/09 03:24:40;;;;;;;5.53;5.13;;;;;;;;;;5093365;28;20201;-66
2021/05/09 03:27:07;;;;;;;6.97;5.38;;;;;;;;;;5093328;28;20569;-65
2021/05/09 03:29:34;;;;;;;4.72;4.38;;;;;;;;;;5093441;28;20215;-65
2021/05/09 03:32:00;;;;;;;6.00;5.40;;;;;;;;;;5093396;28;20193;-65
2021/05/09 03:34:27;;;;;;;6.22;5.65;;;;;;;;;;5092985;28;20613;-65
2021/05/09 03:36:54;;;;;;;5.20;4.80;;;;;;;;;;5093578;28;20201;-65
2021/05/09 03:39:21;;;;;;;5.53;4.95;;;;;;;;;;5092901;28;20290;-66
2021/05/09 03:41:48;;;;;;;6.95;5.20;;;;;;;;;;5092861;28;20221;-65
2021/05/09 03:44:15;;;;;;;5.82;5.43;;;;;;;;;;5092871;28;20194;-65
2021/05/09 03:46:41;;;;;;;10.38;4.97;;;;;;;;;;5092831;28;20631;-65
2021/05/09 03:49:08;;;;;;;4.97;4.45;;;;;;;;;;5093073;28;20307;-65
2021/05/09 03:51:35;;;;;;;5.35;4.85;;;;;;;;;;5092796;28;20653;-65
2021/05/09 03:54:01;;;;;;;6.13;5.53;;;;;;;;;;5093282;28;20207;-66
2021/05/09 03:56:29;;;;;;;6.68;4.70;;;;;;;;;;5093089;28;20199;-66
2021/05/09 03:58:56;;;;;;;6.38;4.97;;;;;;;;;;5093732;28;20214;-65
2021/05/09 04:01:22;;;;;;;5.78;4.97;;;;;;;;;;5092995;28;20193;-65
2021/05/09 04:03:49;;;;;;;5.70;5.07;;;;;;;;;;5093262;28;20310;-65
2021/05/09 04:06:16;;;;;;;5.03;4.70;;;;;;;;;;5093028;28;20247;-66
2021/05/09 04:08:43;;;;;;;5.85;5.28;;;;;;;;;;5093352;28;20222;-66
2021/05/09 04:11:12;;;;;;;5.43;4.90;;;;;;;;;;5092587;28;20192;-65
2021/05/09 04:13:46;;;;;;;5.30;4.80;;;;;;;;;;5094506;28;20246;-65
2021/05/09 04:16:13;;;;;;;7.75;4.80;;;;;;;;;;5096409;28;20203;-65
2021/05/09 04:18:39;;;;;;;6.43;4.90;;;;;;;;;;5097440;28;20199;-66
2021/05/09 04:21:06;;;;;;;6.10;5.00;;;;;;;;;;5096348;28;20206;-65
2021/05/09 04:23:33;;;;;;;5.72;5.22;;;;;;;;;;5096556;28;20199;-65
2021/05/09 04:25:59;;;;;;;5.05;4.55;;;;;;;;;;5096188;28;20290;-65
2021/05/09 04:28:26;;;;;;;5.95;5.22;;;;;;;;;;5096433;28;20230;-65
2021/05/09 04:30:54;;;;;;;4.60;4.20;;;;;;;;;;5096137;28;20207;-65
2021/05/09 04:33:25;;;;;;;5.07;4.57;;;;;;;;;;5096363;28;20208;-65
2021/05/09 04:35:52;;;;;;;6.28;4.68;;;;;;;;;;5096373;28;20234;-65
2021/05/09 04:38:19;;;;;;;6.88;5.35;;;;;;;;;;5096243;28;20201;-65
2021/05/09 04:40:45;;;;;;;5.60;5.10;;;;;;;;;;5095842;28;20230;-66
2021/05/09 04:43:13;;;;;;;5.00;4.50;;;;;;;;;;5096932;28;20272;-66
2021/05/09 04:45:40;;;;;;;6.38;4.40;;;;;;;;;;5096264;28;20385;-66
2021/05/09 04:48:08;;;;;;;8.38;5.28;;;;;;;;;;5096155;28;20264;-65
2021/05/09 04:50:35;;;;;;;4.72;4.22;;;;;;;;;;5101542;28;20195;-65
2021/05/09 04:53:01;;;;;;;4.80;4.40;;;;;;;;;;5099495;28;20198;-65
2021/05/09 04:55:28;;;;;;;4.82;4.43;;;;;;;;;;5095611;28;20294;-65
2021/05/09 04:57:55;;;;;;;6.35;4.80;;;;;;;;;;5095917;28;20196;-66
2021/05/09 05:00:22;;;;;;;5.70;4.82;;;;;;;;;;5095918;28;20264;-66
2021/05/09 05:02:49;;;;;;;7.35;4.28;;;;;;;;;;5096200;28;20208;-66
2021/05/09 05:05:17;;;;;;;6.00;5.33;;;;;;;;;;5095363;28;20226;-66
2021/05/09 05:07:43;;;;;;;6.53;5.13;;;;;;;;;;5095821;28;20462;-66
2021/05/09 05:10:10;;;;;;;4.90;4.45;;;;;;;;;;5096340;28;20228;-66
2021/05/09 05:12:37;;;;;;;4.70;4.22;;;;;;;;;;5095320;28;20199;-66
2021/05/09 05:15:04;;;;;;;5.78;4.80;;;;;;;;;;5095503;28;20256;-66
2021/05/09 05:17:32;;;;;;;6.43;4.27;;;;;;;;;;5095542;28;20217;-66
2021/05/09 05:19:58;;;;;;;4.97;4.27;;;;;;;;;;5094966;28;20504;-66
2021/05/09 05:22:26;;;;;;;4.80;4.30;;;;;;;;;;5095443;28;20448;-66
2021/05/09 05:24:53;;;;;;;5.77;4.73;;;;;;;;;;5094668;28;20200;-66
2021/05/09 05:27:19;;;;;;;4.53;4.13;;;;;;;;;;5094876;28;20473;-66
2021/05/09 05:29:46;;;;;;;7.77;4.80;;;;;;;;;;5095186;28;20478;-65
2021/05/09 05:32:13;;;;;;;4.50;3.77;;;;;;;;;;5095125;28;20443;-65
2021/05/09 05:34:39;;;;;;;4.70;3.80;;;;;;;;;;5094991;28;20440;-65
2021/05/09 05:37:06;;;;;;;4.90;4.33;;;;;;;;;;5094899;28;20442;-65
2021/05/09 05:39:34;;;;;;;4.77;4.37;;;;;;;;;;5095336;28;20454;-65
2021/05/09 05:42:03;;;;;;;4.43;4.10;;;;;;;;;;5095176;28;20476;-65
2021/05/09 05:44:30;;;;;;;6.93;3.70;;;;;;;;;;5095473;28;20538;-64
2021/05/09 05:46:56;;;;;;;4.13;3.40;;;;;;;;;;5094886;28;20439;-64
2021/05/09 05:49:23;;;;;;;3.57;3.27;;;;;;;;;;5094115;28;20574;-67
2021/05/09 05:51:50;;;;;;;5.30;3.67;;;;;;;;;;5094860;28;20554;-64
2021/05/09 05:54:16;;;;;;;3.90;3.60;;;;;;;;;;5094409;28;20453;-64
2021/05/09 05:56:44;;;;;;;3.93;3.20;;;;;;;;;;5094473;28;20933;-65
2021/05/09 05:59:11;;;;;;;5.57;2.90;;;;;;;;;;5094680;28;20443;-65
2021/05/09 06:01:37;;;;;;;3.83;3.53;;;;;;;;;;5093885;28;21003;-65
2021/05/09 06:04:04;;;;;;;4.30;3.27;;;;;;;;;;5094066;28;20444;-65
2021/05/09 06:06:31;;;;;;;4.13;3.23;;;;;;;;;;5094056;28;20468;-65
2021/05/09 06:08:58;;;;;;;3.53;3.23;;;;;;;;;;5094521;28;20482;-65
2021/05/09 06:11:25;;;;;;;3.50;3.20;;;;;;;;;;5093954;28;20451;-66
2021/05/09 06:13:52;;;;;;;4.00;3.60;;;;;;;;;;5094780;28;20444;-65
2021/05/09 06:16:19;;;;;;;3.20;2.90;;;;;;;;;;5094272;28;20448;-65
2021/05/09 06:18:46;;;;;;;3.87;3.60;;;;;;;;;;5093954;28;20444;-65
2021/05/09 06:21:12;;;;;;;3.33;3.13;;;;;;;;;;5094023;28;20451;-65
2021/05/09 06:23:39;;;;;;;6.00;3.17;;;;;;;;;;5094264;28;20534;-65
2021/05/09 06:26:06;;;;;;;3.13;2.90;;;;;;;;;;5093879;28;20455;-65
2021/05/09 06:28:32;;;;;;;3.03;2.83;;;;;;;;;;5094070;28;20876;-65
2021/05/09 06:31:00;;;;;;;4.00;3.33;;;;;;;;;;5093797;28;20445;-66
2021/05/09 06:33:27;;;;;;;4.13;3.20;;;;;;;;;;5093621;28;20936;-65
2021/05/09 06:35:54;;;;;;;4.93;3.03;;;;;;;;;;5093470;28;20538;-65
2021/05/09 06:38:21;;;;;;;3.97;3.33;;;;;;;;;;5093365;28;20453;-65
2021/05/09 06:40:50;;;;;;;3.77;3.47;;;;;;;;;;5093632;28;20561;-65
2021/05/09 06:43:17;;;;;;;6.80;2.90;;;;;;;;;;5093544;28;20951;-65
2021/05/09 06:45:45;;;;;;;3.57;2.90;;;;;;;;;;5093465;28;20796;-65
2021/05/09 06:48:12;;;;;;;3.63;3.10;;;;;;;;;;5093538;28;20539;-65
2021/05/09 06:50:39;;;;;;;3.73;3.13;;;;;;;;;;5093609;28;20476;-65
2021/05/09 06:53:07;;;;;;;3.80;3.47;;;;;;;;;;5093331;28;20974;-65
2021/05/09 06:55:35;;;;;;;3.40;2.97;;;;;;;;;;5093644;28;20439;-64
2021/05/09 06:58:02;;;;;;;3.27;2.90;;;;;;;;;;5093505;28;20447;-67
2021/05/09 07:00:29;;;;;;;3.53;3.23;;;;;;;;;;5093719;28;20446;-64
2021/05/09 07:02:56;;;;;;;3.23;3.03;;;;;;;;;;5093249;28;20964;-64
2021/05/09 07:05:23;;;;;;;3.53;3.23;;;;;;;;;;5093611;28;20435;-64
2021/05/09 07:07:51;;;;;;;2.90;2.57;;;;;;;;;;5093594;28;20525;-65
2021/05/09 07:10:17;;;;;;;3.00;2.80;;;;;;;;;;5093628;28;20566;-65
2021/05/09 07:12:44;;;;;;;3.00;2.80;;;;;;;;;;5093480;28;20446;-67
2021/05/09 07:15:13;;;;;;;2.30;2.17;;;;;;;;;;5093189;28;20809;-66
2021/05/09 07:17:41;;;;;;;2.87;2.53;;;;;;;;;;5093586;28;20485;-68
2021/05/09 07:20:09;;;;;;;2.43;2.13;;;;;;;;;;5092993;28;20942;-66
2021/05/09 07:22:39;;;;;;;2.57;2.37;;;;;;;;;;5093076;28;20432;-68
2021/05/09 07:25:06;;;;;;;4.03;2.10;;;;;;;;;;5093796;28;20429;-68
2021/05/09 07:27:33;;;;;;;2.67;2.47;;;;;;;;;;5093804;28;20446;-68
2021/05/09 07:29:59;;;;;;;3.17;2.57;;;;;;;;;;5092760;28;20563;-67
2021/05/09 07:32:26;;;;;;;2.50;2.30;;;;;;;;;;5092936;28;20444;-67
2021/05/09 07:34:53;;;;;;;2.80;2.37;;;;;;;;;;5093261;28;20445;-67
2021/05/09 07:37:20;;;;;;;2.63;2.43;;;;;;;;;;5093480;28;20531;-67
2021/05/09 07:39:47;;;;;;;2.97;2.40;;;;;;;;;;5092866;28;20506;-67
2021/05/09 07:42:14;;;;;;;3.80;3.13;;;;;;;;;;5093588;28;20649;-67
2021/05/09 07:44:40;;;;;;;2.70;2.50;;;;;;;;;;5092816;28;20455;-66
2021/05/09 07:47:07;;;;;;;2.70;2.50;;;;;;;;;;5092846;28;20516;-65
2021/05/09 07:49:34;;;;;;;3.30;2.30;;;;;;;;;;5096457;28;20502;-67
2021/05/09 07:52:01;;;;;;;3.63;2.30;;;;;;;;;;5096634;28;20450;-66
2021/05/09 07:54:27;;;;;;;2.37;2.17;;;;;;;;;;5097572;28;20471;-66
2021/05/09 07:56:55;;;;;;;5.80;2.67;;;;;;;;;;5096692;28;20451;-67
2021/05/09 07:59:22;;;;;;;3.70;2.73;;;;;;;;;;5097084;28;20443;-67
2021/05/09 08:01:48;;;;;;;2.40;2.20;;;;;;;;;;5097195;28;20437;-67
2021/05/09 08:04:15;;;;;;;5.90;2.60;;;;;;;;;;5096527;28;20440;-67
2021/05/09 08:06:43;;;;;;;3.80;2.33;;;;;;;;;;5096702;28;20443;-66
2021/05/09 08:09:10;;;;;;;2.87;2.40;;;;;;;;;;5096296;28;20475;-67
2021/05/09 08:11:37;;;;;;;2.57;2.30;;;;;;;;;;5096321;28;20447;-67
2021/05/09 08:14:05;;;;;;;3.20;2.60;;;;;;;;;;5097125;28;20468;-66
2021/05/09 08:16:31;;;;;;;4.30;2.03;;;;;;;;;;5096826;28;20519;-67
2021/05/09 08:18:58;;;;;;;2.13;1.77;;;;;;;;;;5096651;28;20435;-67
2021/05/09 08:21:25;;;;;;;2.50;2.13;;;;;;;;;;5096490;28;20443;-67
2021/05/09 08:23:51;;;;;;;5.70;2.10;;;;;;;;;;5096380;28;20535;-68
2021/05/09 08:26:18;;;;;;;3.40;2.30;;;;;;;;;;5095984;28;20446;-68
2021/05/09 08:28:45;;;;;;;4.30;2.10;;;;;;;;;;5096258;28;20861;-67
2021/05/09 08:31:16;;;;;;;4.33;1.70;;;;;;;;;;5096012;28;20993;-67
2021/05/09 08:33:42;;;;;;;3.53;2.30;;;;;;;;;;5096698;28;20432;-67
2021/05/09 08:36:09;;;;;;;2.33;1.80;;;;;;;;;;5096316;28;20794;-67
2021/05/09 08:38:36;;;;;;;3.00;2.07;;;;;;;;;;5095678;28;20787;-66
2021/05/09 08:41:03;;;;;;;3.70;1.90;;;;;;;;;;5095883;28;20472;-67
2021/05/09 08:43:30;;;;;;;2.47;2.23;;;;;;;;;;5095841;28;20527;-67
2021/05/09 08:45:57;;;;;;;3.77;1.87;;;;;;;;;;5095595;28;21078;-67
2021/05/09 08:48:26;;;;;;;2.07;1.83;;;;;;;;;;5095990;28;20510;-66
2021/05/09 08:50:53;;;;;;;1.80;1.70;;;;;;;;;;5095568;28;20445;-67
2021/05/09 08:53:20;;;;;;;5.07;1.80;;;;;;;;;;5095500;28;20444;-67
2021/05/09 08:55:48;;;;;;;1.77;1.60;;;;;;;;;;5095362;28;20468;-66
2021/05/09 08:58:14;;;;;;;2.93;1.70;;;;;;;;;;5095706;28;20438;-67
2021/05/09 09:00:41;;;;;;;5.30;3.93;;;;;;;;;;5094164;28;20455;-67
2021/05/09 09:03:08;;;;;;;3.07;2.03;;;;;;;;;;5095839;28;20443;-66
2021/05/09 09:05:36;;;;;;;2.03;1.73;;;;;;;;;;5095369;28;20444;-67
2021/05/09 09:08:03;;;;;;;1.93;1.83;;;;;;;;;;5095549;28;20441;-67
2021/05/09 09:10:31;;;;;;;1.70;1.60;;;;;;;;;;5095296;28;20513;-69
2021/05/09 09:13:00;;;;;;;3.53;1.77;;;;;;;;;;5095396;28;20434;-69
2021/05/09 09:15:46;;;;;;;2.00;1.87;;;;;;;;;;5095373;28;20452;-69
2021/05/09 09:18:29;;;;;;;2.00;1.63;;;;;;;;;;5095729;28;20856;-69
2021/05/09 09:20:57;;;;;;;1.80;1.70;;;;;;;;;;5095107;28;20894;-68
2021/05/09 09:23:24;;;;;;;4.00;1.93;;;;;;;;;;5095134;28;20529;-68
2021/05/09 09:25:50;;;;;;;2.20;2.10;;;;;;;;;;5094946;28;20528;-68
2021/05/09 09:28:20;;;;;;;1.97;1.60;;;;;;;;;;5094751;28;20528;-69
2021/05/09 09:30:52;;;;;;;2.47;2.27;;;;;;;;;;5095055;28;20481;-68
2021/05/09 09:33:20;;;;;;;2.87;2.20;;;;;;;;;;5104431;28;20755;-68
2021/05/09 09:35:48;;;;;;;2.90;1.90;;;;;;;;;;5096666;28;20968;-68
2021/05/09 09:38:21;;;;;;;2.13;2.03;;;;;;;;;;5094728;28;21003;-68
2021/05/09 09:41:03;;;;;;;2.20;2.03;;;;;;;;;;5094604;28;20485;-67
2021/05/09 09:43:30;;;;;;;4.90;2.30;;;;;;;;;;5094666;28;21008;-69
2021/05/09 09:45:56;;;;;;;2.43;2.03;;;;;;;;;;5094848;28;20487;-67
2021/05/09 09:48:39;;;;;;;2.60;2.00;;;;;;;;;;5094466;28;20458;-68
2021/05/09 09:51:06;;;;;;;2.20;2.00;;;;;;;;;;5095072;28;20431;-68
2021/05/09 09:53:34;;;;;;;2.57;2.10;;;;;;;;;;5094868;28;20438;-68
2021/05/09 09:56:02;;;;;;;2.33;1.90;;;;;;;;;;5094343;28;20940;-69
2021/05/09 09:58:45;;;;;;;3.53;2.40;;;;;;;;;;5094578;28;20534;-68
2021/05/09 10:01:12;;;;;;;2.00;1.90;;;;;;;;;;5094571;28;20783;-68
2021/05/09 10:03:39;;;;;;;2.47;2.27;;;;;;;;;;5094376;28;20535;-68
2021/05/09 10:06:06;;;;;;;2.97;2.67;;;;;;;;;;5094560;28;20533;-67
2021/05/09 10:08:34;;;;;;;2.77;2.57;;;;;;;;;;5094502;28;20443;-67
2021/05/09 10:11:01;;;;;;;2.90;2.70;;;;;;;;;;5093956;28;20887;-68
2021/05/09 10:13:29;;;;;;;2.73;2.50;;;;;;;;;;5094195;28;20834;-69
2021/05/09 10:15:56;;;;;;;4.90;2.43;;;;;;;;;;5094398;28;20450;-67
2021/05/09 10:18:24;;;;;;;3.20;2.50;;;;;;;;;;5094060;28;20502;-69
2021/05/09 10:20:50;;;;;;;2.43;2.30;;;;;;;;;;5094188;28;20444;-68
2021/05/09 10:23:18;;;;;;;2.37;2.17;;;;;;;;;;5094100;28;20460;-68
2021/05/09 10:25:47;;;;;;;2.30;2.10;;;;;;;;;;5094677;28;20443;-68
2021/05/09 10:28:14;;;;;;;2.73;2.00;;;;;;;;;;5093955;28;20440;-68
2021/05/09 10:30:45;;;;;;;5.10;2.40;;;;;;;;;;5094770;28;20483;-68
2021/05/09 10:33:32;;;;;;;3.50;2.57;;;;;;;;;;5093501;28;20473;-68
2021/05/09 10:35:59;;;;;;;3.57;2.20;;;;;;;;;;5093803;28;21054;-68
2021/05/09 10:38:25;;;;;;;2.07;1.90;;;;;;;;;;5094024;28;20577;-69
2021/05/09 10:41:09;;;;;;;2.30;2.10;;;;;;;;;;5093722;28;20960;-68
2021/05/09 10:43:36;;;;;;;2.70;2.50;;;;;;;;;;5093597;28;20502;-68
2021/05/09 10:46:03;;;;;;;2.30;2.20;;;;;;;;;;5093254;28;20486;-68
2021/05/09 10:48:32;;;;;;;4.70;2.00;;;;;;;;;;5093774;28;20517;-68
2021/05/09 10:51:23;;;;;;;2.40;2.20;;;;;;;;;;5093838;28;20536;-68
2021/05/09 10:53:52;;;;;;;2.50;2.30;;;;;;;;;;5094230;28;20435;-67
2021/05/09 10:56:32;;;;;;;2.03;1.93;;;;;;;;;;5093829;28;20437;-67
2021/05/09 10:58:59;;;;;;;2.60;2.40;;;;;;;;;;5093157;28;20910;-67
2021/05/09 11:01:26;;;;;;;3.00;2.20;;;;;;;;;;5093445;28;20791;-68
2021/05/09 11:03:57;;;;;;;3.13;2.83;;;;;;;;;;5093612;28;20439;-69
2021/05/09 11:06:43;;;;;;;2.87;2.47;;;;;;;;;;5093706;28;20521;-68
2021/05/09 11:09:11;;;;;;;3.70;2.30;;;;;;;;;;5093628;28;20464;-68
2021/05/09 11:11:59;;;;;;;3.50;3.20;;;;;;;;;;5093112;28;20487;-68
2021/05/09 11:14:26;;;;;;;4.40;2.40;;;;;;;;;;5093893;28;20444;-68
2021/05/09 11:17:01;;;;;;;3.40;2.40;;;;;;;;;;5093169;28;20496;-69
2021/05/09 11:19:35;;;;;;;2.53;2.43;;;;;;;;;;5093744;28;20534;-69
2021/05/09 11:22:02;;;;;;;2.40;2.20;;;;;;;;;;5093402;28;20439;-68
2021/05/09 11:24:31;;;;;;;2.83;2.63;;;;;;;;;;5097114;28;20480;-68
2021/05/09 11:26:58;;;;;;;3.73;2.40;;;;;;;;;;5097472;28;20440;-68
2021/05/09 11:29:26;;;;;;;3.63;2.10;;;;;;;;;;5097955;28;20481;-68
2021/05/09 11:31:54;;;;;;;3.23;2.67;;;;;;;;;;5097232;28;20799;-68
2021/05/09 11:34:21;;;;;;;2.60;2.27;;;;;;;;;;5097084;28;21025;-68
2021/05/09 11:36:49;;;;;;;2.80;2.57;;;;;;;;;;5096973;28;20489;-70
2021/05/09 11:39:16;;;;;;;3.00;2.47;;;;;;;;;;5096656;28;20992;-68
2021/05/09 11:41:50;;;;;;;2.60;2.40;;;;;;;;;;5097144;28;20467;-68
2021/05/09 11:44:17;;;;;;;4.60;2.20;;;;;;;;;;5096757;28;20439;-69
2021/05/09 11:46:44;;;;;;;3.97;2.73;;;;;;;;;;5097377;28;20486;-68
2021/05/09 11:49:18;;;;;;;5.40;3.10;;;;;;;;;;5096925;28;20481;-68
2021/05/09 11:51:58;;;;;;;3.03;2.80;;;;;;;;;;5097571;28;20511;-68
2021/05/09 11:54:26;;;;;;;6.80;3.37;;;;;;;;;;5097268;28;20757;-68
2021/05/09 11:56:53;;;;;;;5.13;2.23;;;;;;;;;;5097256;28;20922;-68
2021/05/09 11:59:33;;;;;;;2.53;2.33;;;;;;;;;;5096597;28;20441;-69
2021/05/09 12:02:02;;;;;;;2.90;2.10;;;;;;;;;;5096117;28;20523;-68
2021/05/09 12:04:30;;;;;;;3.40;2.80;;;;;;;;;;5096494;28;20771;-69
2021/05/09 12:07:00;;;;;;;2.73;2.53;;;;;;;;;;5096518;28;20436;-67
2021/05/09 12:09:27;;;;;;;2.23;2.03;;;;;;;;;;5096387;28;20524;-67
2021/05/09 12:11:54;;;;;;;3.93;2.20;;;;;;;;;;5096324;28;20745;-67
2021/05/09 12:14:21;;;;;;;3.90;2.43;;;;;;;;;;5096374;28;20528;-67
2021/05/09 12:16:48;;;;;;;2.70;2.50;;;;;;;;;;5096183;28;20423;-67
2021/05/09 12:19:16;;;;;;;3.63;2.40;;;;;;;;;;5096392;28;20552;-67
2021/05/09 12:21:56;;;;;;;3.83;2.17;;;;;;;;;;5096239;28;20444;-67
2021/05/09 12:24:23;;;;;;;4.50;2.57;;;;;;;;;;5095784;28;20450;-67
2021/05/09 12:26:59;;;;;;;3.10;2.73;;;;;;;;;;5095902;28;20774;-67
2021/05/09 12:29:32;;;;;;;3.60;2.73;;;;;;;;;;5095530;28;20451;-67
2021/05/09 12:32:18;;;;;;;2.70;2.50;;;;;;;;;;5095541;28;20511;-67
2021/05/09 12:35:06;;;;;;;3.47;2.90;;;;;;;;;;5095344;28;20466;-67
2021/05/09 12:37:33;;;;;;;3.47;2.60;;;;;;;;;;5095732;28;20527;-68
2021/05/09 12:40:13;;;;;;;2.83;2.63;;;;;;;;;;5094935;28;20445;-68
2021/05/09 12:42:54;;;;;;;4.40;2.30;;;;;;;;;;5095344;28;20417;-68
2021/05/09 12:45:28;;;;;;;4.73;2.97;;;;;;;;;;5095339;28;20615;-67
2021/05/09 12:48:05;;;;;;;5.20;4.80;;;;;;;;;;5096127;28;20425;-67
2021/05/09 12:50:49;;;;;;;3.77;3.20;;;;;;;;;;5095793;28;20864;-68
2021/05/09 12:53:16;;;;;;;2.60;2.40;;;;;;;;;;5095434;28;20525;-68
2021/05/09 12:55:43;;;;;;;3.47;3.27;;;;;;;;;;5094852;28;20417;-68
2021/05/09 12:58:11;;;;;;;3.17;2.73;;;;;;;;;;5095076;28;20431;-68
2021/05/09 13:00:38;;;;;;;2.53;2.33;;;;;;;;;;5095407;28;20415;-68
2021/05/09 13:03:05;;;;;;;4.33;2.60;;;;;;;;;;5095538;28;20528;-68
2021/05/09 13:05:32;;;;;;;6.20;5.30;;;;;;;;;;5095455;28;20451;-68
2021/05/09 13:07:59;;;;;;;3.43;3.13;;;;;;;;;;5095064;28;20891;-68
2021/05/09 13:10:27;;;;;;;4.80;2.40;;;;;;;;;;5095318;28;20488;-68
2021/05/09 13:12:54;;;;;;;4.93;4.53;;;;;;;;;;5095253;28;20444;-68
2021/05/09 13:15:22;;;;;;;3.10;2.90;;;;;;;;;;5094946;28;20506;-68
2021/05/09 13:17:49;;;;;;;4.13;3.23;;;;;;;;;;5094858;28;20438;-68
2021/05/09 13:20:16;;;;;;;8.27;3.00;;;;;;;;;;5095378;28;20447;-68
2021/05/09 13:22:43;;;;;;;5.57;2.60;;;;;;;;;;5094547;28;20447;-68
2021/05/09 13:25:11;;;;;;;2.80;2.27;;;;;;;;;;5095164;28;20479;-68
2021/05/09 13:27:41;;;;;;;7.50;3.80;;;;;;;;;;5094889;28;20425;-68
2021/05/09 13:30:09;;;;;;;3.33;2.43;;;;;;;;;;5094828;28;20508;-68
2021/05/09 13:32:36;;;;;;;3.10;2.80;;;;;;;;;;5094718;28;20411;-66
2021/05/09 13:35:09;;;;;;;2.73;2.53;;;;;;;;;;5094569;28;20499;-67
2021/05/09 13:37:36;;;;;;;2.50;2.30;;;;;;;;;;5094246;28;20438;-66
2021/05/09 13:40:03;;;;;;;7.67;3.07;;;;;;;;;;5094189;28;20457;-66
2021/05/09 13:42:31;;;;;;;3.03;2.73;;;;;;;;;;5094284;28;20487;-66
2021/05/09 13:44:58;;;;;;;3.17;2.10;;;;;;;;;;5094472;28;20467;-67
2021/05/09 13:47:27;;;;;;;2.97;2.77;;;;;;;;;;5098536;28;20532;-67
2021/05/09 13:49:53;;;;;;;2.30;2.10;;;;;;;;;;5105846;28;20477;-67
2021/05/09 13:52:20;;;;;;;2.40;2.20;;;;;;;;;;5114141;28;20454;-67
2021/05/09 13:54:47;;;;;;;2.70;2.23;;;;;;;;;;5114315;28;20490;-66
2021/05/09 13:57:14;;;;;;;2.97;2.43;;;;;;;;;;5114814;28;20574;-67
2021/05/09 13:59:44;;;;;;;2.97;2.30;;;;;;;;;;5114093;28;20460;-67
2021/05/09 14:02:10;;;;;;;5.73;3.67;;;;;;;;;;5114377;28;20419;-67
2021/05/09 14:04:37;;;;;;;2.07;1.97;;;;;;;;;;5114303;28;20449;-67
2021/05/09 14:07:25;;;;;;;3.07;2.80;;;;;;;;;;5114631;28;20939;-67
2021/05/09 14:09:52;;;;;;;4.23;3.17;;;;;;;;;;5104163;28;20487;-67
2021/05/09 14:12:18;;;;;;;2.33;2.23;;;;;;;;;;5114792;28;20475;-67
2021/05/09 14:14:51;;;;;;;2.77;2.57;;;;;;;;;;5114447;28;20484;-67
2021/05/09 14:17:34;;;;;;;4.17;2.10;;;;;;;;;;5105591;28;20419;-67
2021/05/09 14:20:01;;;;;;;3.93;2.73;;;;;;;;;;5105171;28;20923;-67
2021/05/09 14:22:28;;;;;;;2.60;2.40;;;;;;;;;;5093889;28;20451;-67
2021/05/09 14:24:56;;;;;;;3.00;2.20;;;;;;;;;;5093927;28;20507;-66
2021/05/09 14:27:24;;;;;;;3.00;2.80;;;;;;;;;;5093816;28;20442;-67
2021/05/09 14:29:51;;;;;;;3.73;2.63;;;;;;;;;;5093509;28;20476;-67
2021/05/09 14:32:18;;;;;;;3.00;2.13;;;;;;;;;;5093775;28;20450;-67
2021/05/09 14:38:13;;;;;;;2.43;2.23;;;;;;;;;;5106383;28;20373;-67
2021/05/09 14:43:54;;;;;;;3.37;2.63;;;;;;;;;;5082292;28;20430;-67
2021/05/09 14:47:12;;;;;;;2.83;2.53;;;;;;;;;;5112737;28;20451;-66
2021/05/09 16:35:01;;;;;;;2.60;2.23;;;;;;;;;;4918003;28;20876;-66
2021/05/09 16:37:28;;;;;;;3.10;2.80;;;;;;;;;;5001029;28;20524;-67
2021/05/09 16:39:54;;;;;;;8.63;2.90;;;;;;;;;;5053198;28;20448;-67
2021/05/09 16:42:21;;;;;;;3.40;2.17;;;;;;;;;;5053364;28;20523;-67